createdAt,value
2023-05-09T00:00:06.054Z,16.55
2023-05-09T00:02:34.661Z,15.63
2023-05-09T00:05:05.303Z,15.32
2023-05-09T00:07:33.136Z,15.60
2023-05-09T00:10:01.866Z,18.10
2023-05-09T00:12:29.625Z,15.70
2023-05-09T00:14:57.850Z,17.85
2023-05-09T00:17:25.403Z,16.30
2023-05-09T00:19:53.830Z,14.93
2023-05-09T00:22:21.527Z,17.63
2023-05-09T00:24:49.491Z,17.17
2023-05-09T00:27:17.200Z,16.27
2023-05-09T00:29:44.917Z,16.42
2023-05-09T00:32:12.580Z,16.05
2023-05-09T00:34:40.401Z,16.35
2023-05-09T00:37:07.904Z,15.45
2023-05-09T00:39:36.092Z,16.00
2023-05-09T00:42:03.731Z,19.45
2023-05-09T00:44:31.236Z,18.30
2023-05-09T00:46:59.430Z,17.92
2023-05-09T00:49:27.404Z,17.80
2023-05-09T00:51:56.645Z,17.75
2023-05-09T00:54:24.710Z,18.83
2023-05-09T00:56:52.211Z,17.13
2023-05-09T00:59:20.089Z,18.48
2023-05-09T01:01:47.888Z,17.20
2023-05-09T01:04:16.437Z,14.73
2023-05-09T01:06:56.030Z,16.40
2023-05-09T01:09:35.836Z,19.85
2023-05-09T01:12:53.520Z,17.23
2023-05-09T01:15:30.480Z,16.35
2023-05-09T01:18:33.285Z,16.17
2023-05-09T01:21:14.128Z,17.77
2023-05-09T01:23:44.601Z,16.00
2023-05-09T01:26:47.900Z,18.27
2023-05-09T01:29:46.040Z,19.10
2023-05-09T01:32:26.289Z,16.27
2023-05-09T01:34:59.247Z,18.17
2023-05-09T01:37:32.869Z,16.55
2023-05-09T01:40:11.817Z,17.67
2023-05-09T01:42:55.095Z,16.45
2023-05-09T01:45:24.785Z,16.77
2023-05-09T01:47:53.525Z,19.98
2023-05-09T01:50:22.913Z,19.00
2023-05-09T01:52:56.007Z,16.60
2023-05-09T01:55:27.825Z,17.88
2023-05-09T01:57:58.669Z,18.23
2023-05-09T02:00:27.058Z,18.25
2023-05-09T02:02:56.672Z,19.67
2023-05-09T02:05:29.573Z,16.40
2023-05-09T02:07:58.530Z,20.75
2023-05-09T02:10:28.602Z,21.70
2023-05-09T02:12:57.463Z,17.58
2023-05-09T02:15:25.793Z,17.83
2023-05-09T02:17:53.321Z,19.52
2023-05-09T02:20:20.925Z,18.40
2023-05-09T02:22:48.903Z,19.52
2023-05-09T02:25:18.512Z,18.80
2023-05-09T02:27:47.024Z,18.25
2023-05-09T02:30:25.125Z,17.50
2023-05-09T02:32:59.735Z,17.83
2023-05-09T02:35:28.005Z,17.20
2023-05-09T02:37:59.014Z,16.30
2023-05-09T02:40:31.091Z,19.50
2023-05-09T02:42:58.610Z,19.15
2023-05-09T02:45:26.370Z,20.98
2023-05-09T02:47:53.985Z,19.77
2023-05-09T02:50:23.847Z,16.17
2023-05-09T02:52:51.387Z,18.52
2023-05-09T02:55:19.112Z,18.65
2023-05-09T02:57:46.685Z,17.05
2023-05-09T03:00:15.785Z,19.45
2023-05-09T03:02:43.364Z,18.10
2023-05-09T03:05:17.616Z,16.25
2023-05-09T03:07:45.920Z,16.00
2023-05-09T03:10:13.449Z,16.45
2023-05-09T03:12:43.658Z,17.23
2023-05-09T03:15:11.461Z,17.05
2023-05-09T03:17:41.943Z,15.80
2023-05-09T03:20:10.289Z,18.70
2023-05-09T03:22:37.840Z,19.63
2023-05-09T03:25:08.587Z,16.33
2023-05-09T03:27:36.174Z,17.15
2023-05-09T03:30:06.977Z,19.95
2023-05-09T03:32:34.730Z,20.92
2023-05-09T03:35:02.353Z,20.05
2023-05-09T03:37:30.025Z,19.23
2023-05-09T03:39:57.766Z,16.67
2023-05-09T03:42:26.212Z,17.15
2023-05-09T03:44:58.268Z,17.75
2023-05-09T03:47:25.752Z,17.90
2023-05-09T03:49:53.652Z,20.60
2023-05-09T03:52:24.056Z,17.58
2023-05-09T03:54:51.776Z,19.30
2023-05-09T03:57:19.532Z,15.82
2023-05-09T03:59:49.954Z,17.42
2023-05-09T04:02:17.734Z,16.98
2023-05-09T04:04:47.462Z,17.05
2023-05-09T04:07:17.750Z,18.02
2023-05-09T04:09:48.469Z,17.52
2023-05-09T04:12:16.253Z,16.73
2023-05-09T04:14:45.674Z,16.15
2023-05-09T04:17:14.967Z,17.23
2023-05-09T04:19:42.658Z,17.95
2023-05-09T04:22:10.411Z,17.20
2023-05-09T04:24:37.919Z,17.25
2023-05-09T04:27:05.524Z,15.75
2023-05-09T04:29:33.690Z,15.85
2023-05-09T04:32:02.240Z,18.55
2023-05-09T04:34:30.077Z,16.05
2023-05-09T04:37:02.543Z,15.68
2023-05-09T04:39:31.172Z,19.85
2023-05-09T04:42:06.101Z,15.32
2023-05-09T04:44:33.986Z,16.40
2023-05-09T04:47:01.872Z,15.57
2023-05-09T04:49:29.454Z,14.80
2023-05-09T04:51:57.563Z,18.17
2023-05-09T04:54:26.017Z,16.02
2023-05-09T04:57:00.276Z,13.32
2023-05-09T04:59:36.466Z,14.43
2023-05-09T05:02:04.301Z,14.23
2023-05-09T05:04:33.763Z,19.05
2023-05-09T05:07:01.939Z,14.57
2023-05-09T05:09:29.636Z,14.38
2023-05-09T05:12:01.857Z,13.75
2023-05-09T05:14:32.628Z,14.73
2023-05-09T05:17:00.346Z,12.40
2023-05-09T05:19:27.889Z,14.40
2023-05-09T05:21:56.353Z,12.50
2023-05-09T05:24:24.474Z,12.30
2023-05-09T05:26:52.234Z,14.65
2023-05-09T05:29:20.342Z,13.45
2023-05-09T05:31:47.920Z,14.55
2023-05-09T05:34:16.603Z,15.43
2023-05-09T05:36:45.199Z,12.90
2023-05-09T05:39:12.747Z,16.88
2023-05-09T05:41:40.275Z,17.15
2023-05-09T05:44:08.743Z,14.77
2023-05-09T05:46:36.508Z,15.82
2023-05-09T05:49:04.402Z,15.27
2023-05-09T05:51:32.285Z,13.43
2023-05-09T05:54:00.908Z,13.65
2023-05-09T05:56:28.490Z,12.13
2023-05-09T05:58:57.228Z,11.50
2023-05-09T06:01:25.078Z,12.93
2023-05-09T06:03:55.749Z,13.57
2023-05-09T06:06:27.171Z,11.07
2023-05-09T06:08:55.740Z,11.38
2023-05-09T06:11:23.748Z,11.98
2023-05-09T06:13:51.282Z,12.13
2023-05-09T06:16:20.315Z,12.15
2023-05-09T06:18:54.105Z,13.57
2023-05-09T06:21:23.587Z,11.27
2023-05-09T06:24:07.837Z,11.73
2023-05-09T06:26:37.997Z,13.05
2023-05-09T06:29:08.802Z,12.15
2023-05-09T06:31:38.361Z,10.65
2023-05-09T06:34:06.512Z,11.10
2023-05-09T06:36:34.997Z,10.13
2023-05-09T06:39:02.849Z,9.82
2023-05-09T06:41:30.392Z,9.25
2023-05-09T06:43:57.887Z,11.77
2023-05-09T06:46:25.537Z,11.10
2023-05-09T06:48:53.029Z,9.73
2023-05-09T06:51:20.540Z,8.73
2023-05-09T06:53:48.037Z,9.07
2023-05-09T06:56:17.391Z,7.85
2023-05-09T06:58:45.978Z,8.38
2023-05-09T07:01:13.547Z,8.88
2023-05-09T07:03:41.053Z,7.57
2023-05-09T07:06:08.597Z,7.97
2023-05-09T07:08:36.131Z,7.30
2023-05-09T07:11:03.945Z,7.80
2023-05-09T07:13:31.664Z,8.55
2023-05-09T07:15:59.828Z,8.27
2023-05-09T07:18:27.397Z,7.65
2023-05-09T07:20:54.891Z,8.85
2023-05-09T07:23:22.475Z,9.07
2023-05-09T07:25:59.206Z,9.45
2023-05-09T07:28:26.798Z,7.15
2023-05-09T07:30:57.626Z,7.05
2023-05-09T07:33:25.457Z,7.75
2023-05-09T07:35:53.112Z,7.22
2023-05-09T07:38:20.615Z,7.03
2023-05-09T07:40:48.106Z,8.32
2023-05-09T07:43:15.611Z,12.10
2023-05-09T07:45:43.641Z,7.97
2023-05-09T07:48:11.278Z,7.75
2023-05-09T07:50:40.033Z,10.82
2023-05-09T07:53:07.568Z,11.07
2023-05-09T07:55:35.078Z,9.93
2023-05-09T07:58:02.802Z,8.85
2023-05-09T08:00:30.332Z,10.55
2023-05-09T08:02:57.959Z,12.68
2023-05-09T08:05:25.702Z,15.50
2023-05-09T08:07:53.186Z,15.93
2023-05-09T08:10:22.095Z,16.13
2023-05-09T08:12:49.619Z,18.92
2023-05-09T08:15:17.299Z,18.27
2023-05-09T08:17:45.090Z,18.48
2023-05-09T08:20:13.265Z,16.33
2023-05-09T08:22:41.037Z,15.75
2023-05-09T08:25:09.289Z,12.35
2023-05-09T08:27:37.415Z,14.23
2023-05-09T08:30:06.420Z,13.07
2023-05-09T08:32:33.975Z,14.30
2023-05-09T08:35:01.554Z,10.68
2023-05-09T08:37:29.215Z,11.77
2023-05-09T08:39:56.699Z,12.85
2023-05-09T08:42:26.670Z,10.15
2023-05-09T08:44:54.281Z,10.18
2023-05-09T08:47:22.522Z,10.70
2023-05-09T08:49:51.141Z,12.35
2023-05-09T08:52:18.955Z,12.23
2023-05-09T08:54:46.750Z,14.30
2023-05-09T08:57:15.633Z,9.20
2023-05-09T08:59:43.570Z,8.80
2023-05-09T09:02:14.428Z,8.75
2023-05-09T09:04:42.359Z,8.27
2023-05-09T09:07:10.788Z,8.48
2023-05-09T09:09:43.727Z,12.50
2023-05-09T09:12:13.870Z,7.97
2023-05-09T09:14:48.267Z,6.90
2023-05-09T09:17:20.850Z,11.60
2023-05-09T09:19:53.734Z,11.63
2023-05-09T09:22:22.141Z,18.20
2023-05-09T09:24:50.847Z,13.60
2023-05-09T09:27:19.249Z,11.93
2023-05-09T09:29:46.802Z,8.50
2023-05-09T09:32:14.500Z,6.97
2023-05-09T09:34:42.140Z,10.38
2023-05-09T09:37:09.693Z,9.48
2023-05-09T09:39:37.233Z,9.38
2023-05-09T09:42:12.132Z,10.98
2023-05-09T09:44:39.658Z,8.02
2023-05-09T09:47:45.936Z,8.07
2023-05-09T09:50:19.039Z,9.80
2023-05-09T09:52:55.880Z,9.18
2023-05-09T09:55:24.696Z,8.43
2023-05-09T09:57:53.005Z,7.30
2023-05-09T10:00:27.666Z,9.13
2023-05-09T10:02:58.276Z,6.80
2023-05-09T10:05:30.689Z,5.68
2023-05-09T10:08:00.958Z,7.53
2023-05-09T10:10:34.122Z,7.38
2023-05-09T10:13:11.885Z,7.57
2023-05-09T10:15:52.290Z,6.68
2023-05-09T10:18:27.043Z,7.68
2023-05-09T10:21:01.017Z,9.23
2023-05-09T10:23:31.737Z,8.75
2023-05-09T10:26:16.757Z,9.30
2023-05-09T10:28:47.965Z,9.50
2023-05-09T10:31:28.832Z,8.50
2023-05-09T10:33:57.102Z,9.95
2023-05-09T10:36:24.893Z,13.43
2023-05-09T10:38:56.153Z,10.40
2023-05-09T10:41:24.279Z,10.07
2023-05-09T10:43:52.414Z,8.05
2023-05-09T10:46:20.547Z,7.80
2023-05-09T10:48:48.731Z,8.80
2023-05-09T10:51:17.556Z,7.50
2023-05-09T10:53:50.737Z,6.68
2023-05-09T10:59:27.212Z,8.73
2023-05-09T11:02:01.086Z,9.18
2023-05-09T11:04:30.410Z,8.60
2023-05-09T11:06:59.109Z,11.38
2023-05-09T11:09:38.943Z,8.15
2023-05-09T11:12:09.845Z,9.65
2023-05-09T11:14:55.926Z,8.60
2023-05-09T11:17:24.428Z,9.90
2023-05-09T11:19:51.831Z,6.18
2023-05-09T11:22:28.515Z,6.75
2023-05-09T11:25:11.264Z,6.22
2023-05-09T11:27:43.817Z,5.95
2023-05-09T11:30:17.328Z,6.53
2023-05-09T11:32:53.630Z,6.32
2023-05-09T11:35:23.454Z,6.55
2023-05-09T11:37:54.887Z,9.45
2023-05-09T11:40:23.080Z,7.10
2023-05-09T11:42:58.287Z,6.22
2023-05-09T11:45:32.204Z,6.60
2023-05-09T11:48:01.062Z,6.25
2023-05-09T11:50:29.246Z,8.02
2023-05-09T11:52:56.799Z,6.65
2023-05-09T11:55:29.885Z,7.28
2023-05-09T11:57:58.450Z,7.47
2023-05-09T12:00:26.720Z,6.63
2023-05-09T12:02:54.670Z,7.63
2023-05-09T12:05:23.695Z,6.38
2023-05-09T12:07:52.572Z,6.25
2023-05-09T12:10:23.077Z,5.45
2023-05-09T12:12:55.391Z,6.05
2023-05-09T12:15:23.735Z,8.65
2023-05-09T12:18:06.556Z,8.57
2023-05-09T12:20:47.556Z,6.50
2023-05-09T12:23:15.577Z,6.85
2023-05-09T12:26:09.784Z,7.57
2023-05-09T12:28:37.586Z,9.32
2023-05-09T12:31:06.517Z,13.07
2023-05-09T12:33:34.667Z,7.55
2023-05-09T12:36:11.215Z,7.55
2023-05-09T12:38:39.309Z,6.68
2023-05-09T12:41:18.827Z,6.78
2023-05-09T12:43:50.980Z,5.03
2023-05-09T12:46:20.395Z,3.50
2023-05-09T12:48:49.496Z,3.88
2023-05-09T12:51:21.854Z,4.50
2023-05-09T12:53:49.587Z,3.40
2023-05-09T12:56:20.180Z,4.18
2023-05-09T12:58:51.511Z,3.55
2023-05-09T13:01:21.339Z,3.70
2023-05-09T13:04:00.233Z,4.40
2023-05-09T13:06:27.769Z,3.30
2023-05-09T13:09:05.643Z,2.85
2023-05-09T13:11:33.213Z,5.25
2023-05-09T13:14:02.711Z,2.97
2023-05-09T13:16:30.281Z,3.47
2023-05-09T13:18:57.776Z,2.53
2023-05-09T13:21:25.382Z,2.40
2023-05-09T13:23:53.020Z,1.98
2023-05-09T13:26:21.464Z,2.72
2023-05-09T13:28:49.095Z,2.08
2023-05-09T13:31:18.067Z,4.03
2023-05-09T13:33:45.623Z,2.78
2023-05-09T13:36:13.187Z,4.47
2023-05-09T13:38:41.083Z,2.80
2023-05-09T13:41:09.637Z,2.45
2023-05-09T13:43:37.427Z,2.85
2023-05-09T13:46:05.026Z,3.10
2023-05-09T13:48:32.591Z,2.72
2023-05-09T13:51:01.209Z,2.22
2023-05-09T13:53:28.724Z,3.10
2023-05-09T13:55:56.239Z,2.63
2023-05-09T13:58:23.799Z,2.20
2023-05-09T14:00:51.496Z,2.83
2023-05-09T14:03:19.129Z,3.38
2023-05-09T14:05:48.034Z,2.85
2023-05-09T14:08:16.537Z,3.42
2023-05-09T14:10:44.558Z,2.50
2023-05-09T14:13:12.712Z,3.10
2023-05-09T14:15:40.433Z,2.78
2023-05-09T14:18:08.299Z,2.38
2023-05-09T14:20:37.442Z,2.78
2023-05-09T14:23:05.008Z,2.63
2023-05-09T14:25:32.604Z,2.40
2023-05-09T14:28:00.208Z,2.95
2023-05-09T14:30:28.124Z,2.42
2023-05-09T14:32:55.665Z,3.55
2023-05-09T14:35:23.660Z,3.65
2023-05-09T14:37:51.278Z,4.25
2023-05-09T14:40:20.513Z,3.33
2023-05-09T14:42:48.684Z,2.17
2023-05-09T14:45:16.342Z,4.05
2023-05-09T14:47:43.902Z,4.97
2023-05-09T14:50:15.765Z,2.97
2023-05-09T14:52:44.233Z,2.90
2023-05-09T14:55:11.838Z,3.22
2023-05-09T14:57:39.464Z,2.88
2023-05-09T15:00:19.559Z,2.97
2023-05-09T15:02:49.711Z,4.57
2023-05-09T15:05:17.988Z,2.80
2023-05-09T15:07:46.322Z,6.53
2023-05-09T15:10:14.078Z,4.45
2023-05-09T15:12:41.924Z,2.40
2023-05-09T15:15:18.439Z,3.47
2023-05-09T15:17:46.867Z,2.80
2023-05-09T15:20:16.221Z,2.45
2023-05-09T15:22:46.009Z,2.75
2023-05-09T15:25:14.047Z,2.15
2023-05-09T15:27:41.716Z,7.72
2023-05-09T15:30:10.433Z,2.60
2023-05-09T15:32:41.539Z,2.22
2023-05-09T15:35:09.394Z,3.22
2023-05-09T15:37:37.159Z,2.47
2023-05-09T15:40:05.410Z,2.00
2023-05-09T15:42:32.938Z,1.85
2023-05-09T15:45:00.484Z,2.65
2023-05-09T15:47:28.238Z,2.47
2023-05-09T15:49:55.813Z,2.78
2023-05-09T15:52:23.288Z,2.85
2023-05-09T15:54:50.919Z,1.98
2023-05-09T15:57:18.460Z,2.20
2023-05-09T15:59:45.949Z,2.67
2023-05-09T16:02:13.492Z,2.30
2023-05-09T16:04:42.352Z,2.20
2023-05-09T16:07:09.874Z,1.90
2023-05-09T16:09:37.819Z,2.83
2023-05-09T16:12:05.692Z,3.20
2023-05-09T16:14:33.443Z,2.28
2023-05-09T16:17:02.551Z,2.30
2023-05-09T16:19:30.720Z,1.98
2023-05-09T16:21:58.471Z,2.47
2023-05-09T16:24:26.052Z,2.13
2023-05-09T16:26:53.576Z,1.77
2023-05-09T16:29:22.277Z,4.05
2023-05-09T16:31:49.842Z,2.45
2023-05-09T16:34:17.494Z,2.53
2023-05-09T16:36:46.342Z,3.22
2023-05-09T16:39:13.884Z,1.85
2023-05-09T16:41:41.428Z,3.22
2023-05-09T16:44:09.172Z,1.90
2023-05-09T16:46:36.794Z,1.90
2023-05-09T16:49:04.309Z,2.22
2023-05-09T16:51:31.970Z,4.32
2023-05-09T16:53:59.457Z,2.45
2023-05-09T16:56:27.209Z,5.22
2023-05-09T16:58:54.719Z,2.15
2023-05-09T17:01:22.266Z,2.50
2023-05-09T17:03:50.266Z,2.50
2023-05-09T17:06:18.418Z,5.38
2023-05-09T17:08:46.196Z,3.97
2023-05-09T17:11:13.964Z,3.40
2023-05-09T17:13:42.924Z,3.50
2023-05-09T17:16:10.784Z,3.88
2023-05-09T17:18:38.721Z,6.90
2023-05-09T17:21:06.718Z,3.60
2023-05-09T17:23:34.282Z,6.25
2023-05-09T17:26:01.798Z,5.25
2023-05-09T17:28:29.303Z,4.30
2023-05-09T17:30:58.909Z,6.55
2023-05-09T17:33:27.052Z,6.18
2023-05-09T17:35:54.749Z,4.38
2023-05-09T17:38:22.221Z,5.63
2023-05-09T17:40:49.960Z,3.95
2023-05-09T17:43:17.699Z,4.43
2023-05-09T17:45:46.197Z,4.15
2023-05-09T17:48:14.276Z,4.32
2023-05-09T17:50:43.385Z,5.13
2023-05-09T17:53:10.900Z,3.30
2023-05-09T17:55:38.683Z,4.35
2023-05-09T17:58:07.971Z,3.60
2023-05-09T18:00:35.522Z,3.85
2023-05-09T18:03:03.999Z,3.25
2023-05-09T18:05:32.695Z,3.47
2023-05-09T18:08:01.152Z,4.55
2023-05-09T18:10:29.114Z,3.10
2023-05-09T18:12:56.984Z,3.45
2023-05-09T18:15:26.058Z,3.03
2023-05-09T18:17:54.669Z,3.20
2023-05-09T18:20:22.298Z,4.53
2023-05-09T18:22:49.881Z,2.72
2023-05-09T18:25:17.558Z,3.72
2023-05-09T18:27:45.099Z,3.75
2023-05-09T18:30:13.135Z,2.97
2023-05-09T18:32:41.378Z,3.20
2023-05-09T18:35:09.720Z,3.75
2023-05-09T18:37:37.703Z,3.20
2023-05-09T18:40:06.097Z,4.38
2023-05-09T18:42:33.640Z,2.95
2023-05-09T18:45:04.158Z,3.70
2023-05-09T18:47:31.849Z,4.70
2023-05-09T18:50:02.369Z,5.10
2023-05-09T18:52:31.946Z,4.20
2023-05-09T18:54:59.831Z,4.25
2023-05-09T18:57:28.305Z,5.78
2023-05-09T18:59:56.052Z,3.55
2023-05-09T19:02:23.792Z,3.95
2023-05-09T19:04:51.637Z,4.63
2023-05-09T19:07:19.209Z,3.85
2023-05-09T19:09:46.807Z,4.75
2023-05-09T19:12:16.264Z,5.55
2023-05-09T19:14:43.861Z,5.97
2023-05-09T19:17:11.359Z,5.75
2023-05-09T19:19:39.358Z,3.65
2023-05-09T19:22:07.114Z,3.88
2023-05-09T19:24:34.723Z,6.03
2023-05-09T19:27:02.444Z,4.25
2023-05-09T19:29:30.237Z,3.50
2023-05-09T19:31:58.192Z,3.30
2023-05-09T19:34:26.294Z,6.13
2023-05-09T19:36:53.955Z,7.75
2023-05-09T19:39:21.448Z,3.67
2023-05-09T19:41:49.132Z,4.43
2023-05-09T19:44:16.744Z,3.22
2023-05-09T19:46:44.420Z,3.75
2023-05-09T19:49:12.727Z,3.83
2023-05-09T19:51:40.504Z,3.65
2023-05-09T19:54:08.241Z,4.30
2023-05-09T19:56:35.869Z,3.72
2023-05-09T19:59:04.570Z,3.25
2023-05-09T20:01:32.353Z,3.10
2023-05-09T20:04:00.241Z,3.90
2023-05-09T20:06:27.916Z,4.90
2023-05-09T20:08:55.548Z,3.55
2023-05-09T20:11:23.175Z,5.00
2023-05-09T20:13:50.898Z,5.57
2023-05-09T20:16:19.952Z,4.07
2023-05-09T20:18:49.076Z,4.78
2023-05-09T20:21:18.246Z,4.50
2023-05-09T20:23:46.209Z,4.38
2023-05-09T20:26:14.023Z,4.75
2023-05-09T20:28:41.881Z,4.15
2023-05-09T20:31:09.423Z,5.80
2023-05-09T20:33:36.967Z,5.57
2023-05-09T20:36:06.519Z,8.65
2023-05-09T20:38:34.041Z,5.45
2023-05-09T20:41:01.892Z,4.88
2023-05-09T20:43:30.086Z,5.35
2023-05-09T20:45:57.722Z,5.28
2023-05-09T20:48:25.895Z,4.10
2023-05-09T20:50:53.477Z,4.90
2023-05-09T20:53:22.396Z,5.57
2023-05-09T20:55:50.692Z,5.53
2023-05-09T20:58:18.558Z,3.42
2023-05-09T21:00:47.087Z,3.72
2023-05-09T21:03:15.053Z,6.15
2023-05-09T21:05:42.868Z,3.55
2023-05-09T21:08:10.480Z,3.05
2023-05-09T21:10:38.126Z,4.90
2023-05-09T21:13:06.317Z,6.43
2023-05-09T21:15:34.999Z,3.90
2023-05-09T21:18:02.546Z,5.35
2023-05-09T21:20:30.101Z,5.25
2023-05-09T21:22:57.655Z,3.70
2023-05-09T21:25:25.220Z,3.13
2023-05-09T21:27:52.896Z,3.22
2023-05-09T21:30:20.474Z,6.60
2023-05-09T21:32:52.310Z,3.65
2023-05-09T21:35:19.983Z,3.08
2023-05-09T21:37:48.463Z,4.03
2023-05-09T21:40:16.525Z,4.00
2023-05-09T21:42:44.324Z,3.42
2023-05-09T21:45:11.833Z,3.08
2023-05-09T21:47:39.775Z,4.10
2023-05-09T21:50:08.076Z,2.88
2023-05-09T21:52:35.638Z,2.97
2023-05-09T21:55:03.291Z,2.17
2023-05-09T21:57:30.775Z,2.40
2023-05-09T22:00:01.290Z,4.72
2023-05-09T22:02:29.121Z,5.80
2023-05-09T22:04:56.751Z,1.98
2023-05-09T22:07:24.343Z,2.60
2023-05-09T22:09:52.823Z,2.88
2023-05-09T22:12:20.393Z,2.92
2023-05-09T22:14:55.777Z,2.10
2023-05-09T22:17:24.606Z,2.45
2023-05-09T22:19:52.263Z,3.53
2023-05-09T22:22:19.778Z,1.50
2023-05-09T22:24:47.325Z,3.28
2023-05-09T22:27:15.008Z,1.95
2023-05-09T22:29:42.494Z,1.50
2023-05-09T22:32:10.089Z,2.22
2023-05-09T22:34:37.844Z,2.38
2023-05-09T22:37:05.385Z,4.65
2023-05-09T22:39:32.946Z,1.98
2023-05-09T22:42:02.408Z,2.33
2023-05-09T22:44:29.990Z,1.85
2023-05-09T22:46:57.496Z,1.35
2023-05-09T22:49:25.061Z,2.45
2023-05-09T22:51:52.577Z,1.52
2023-05-09T22:54:22.041Z,2.15
2023-05-09T22:56:49.622Z,2.00
2023-05-09T22:59:17.169Z,3.78
2023-05-09T23:01:44.768Z,2.13
2023-05-09T23:04:12.421Z,4.03
2023-05-09T23:06:39.953Z,2.13
2023-05-09T23:09:07.817Z,2.05
2023-05-09T23:11:35.343Z,1.80
2023-05-09T23:14:03.575Z,2.35
2023-05-09T23:16:31.180Z,2.25
2023-05-09T23:18:58.694Z,3.03
2023-05-09T23:21:26.252Z,2.50
2023-05-09T23:23:53.726Z,1.75
2023-05-09T23:26:21.645Z,1.02
2023-05-09T23:28:49.116Z,1.55
2023-05-09T23:31:16.773Z,0.93
2023-05-09T23:33:44.254Z,2.22
2023-05-09T23:36:11.776Z,0.98
2023-05-09T23:38:39.253Z,0.50
2023-05-09T23:41:06.767Z,1.02
2023-05-09T23:43:34.306Z,1.63
2023-05-09T23:46:01.869Z,1.73
2023-05-09T23:48:29.633Z,0.57
2023-05-09T23:50:57.134Z,0.63
2023-05-09T23:53:24.612Z,1.15
2023-05-09T23:55:52.083Z,0.45
2023-05-09T23:58:19.588Z,0.45
